Time;durP1;ratioP1;P1;durP2;ratioP2;P2;SDS_P1;SDS_P2;PMS_P1;PMS_P2;Temp;Humidity;BMP_temperature;BMP_pressure;BME280_temperature;BME280_humidity;BME280_pressure;Samples;Min_cycle;Max_cycle;Signal;HPM_P1;HPM_P2
2022/12/06 00:01:31;;;;;;;12.07;4.20;;;5.60;99.90;;;;;;4804437;29;20034;-84
2022/12/06 00:03:58;;;;;;;13.57;4.45;;;5.60;99.90;;;;;;4800923;29;20107;-85
2022/12/06 00:06:28;;;;;;;9.93;4.10;;;5.70;99.90;;;;;;4813300;29;20046;-84
2022/12/06 00:08:55;;;;;;;12.18;4.50;;;5.60;99.90;;;;;;4808000;29;20050;-85
2022/12/06 00:11:24;;;;;;;10.85;4.20;;;5.60;99.90;;;;;;4810295;29;20050;-84
2022/12/06 00:13:58;;;;;;;12.18;4.10;;;5.70;99.90;;;;;;4812835;29;20041;-85
2022/12/06 00:16:26;;;;;;;11.88;4.20;;;5.60;99.90;;;;;;4809659;29;20133;-85
2022/12/06 00:18:51;;;;;;;10.88;4.15;;;5.50;99.90;;;;;;4833703;29;20057;-84
2022/12/06 00:21:21;;;;;;;12.43;4.40;;;5.50;99.90;;;;;;4810556;29;20054;-84
2022/12/06 00:23:50;;;;;;;11.18;4.05;;;6.00;99.90;;;;;;4827491;29;20051;-84
2022/12/06 00:26:17;;;;;;;14.10;4.30;;;6.30;99.90;;;;;;4810804;29;20034;-84
2022/12/06 00:28:43;;;;;;;9.60;3.90;;;6.50;99.90;;;;;;4811125;29;20042;-85
2022/12/06 00:31:13;;;;;;;8.52;3.92;;;5.50;99.90;;;;;;4806394;29;20045;-84
2022/12/06 00:33:39;;;;;;;11.90;3.55;;;5.60;99.90;;;;;;4843005;29;20034;-84
2022/12/06 00:36:07;;;;;;;8.75;4.00;;;5.50;99.90;;;;;;4804888;29;20518;-85
2022/12/06 00:38:36;;;;;;;13.02;3.38;;;5.60;99.90;;;;;;4824609;29;20049;-85
2022/12/06 00:41:04;;;;;;;7.90;2.90;;;5.50;99.90;;;;;;4795078;29;20048;-84
2022/12/06 00:43:30;;;;;;;11.93;4.47;;;5.60;99.90;;;;;;4810998;29;20114;-84
2022/12/06 00:45:56;;;;;;;8.80;3.95;;;5.90;99.90;;;;;;4791232;29;20038;-84
2022/12/06 00:48:22;;;;;;;11.27;3.90;;;5.60;99.90;;;;;;4809597;29;20048;-84
2022/12/06 00:50:48;;;;;;;11.13;2.78;;;5.60;99.90;;;;;;4806406;29;20043;-84
2022/12/06 00:53:14;;;;;;;7.43;2.40;;;5.90;99.90;;;;;;4810626;29;20034;-84
2022/12/06 00:55:39;;;;;;;13.48;3.88;;;5.50;99.90;;;;;;4808497;29;20056;-84
2022/12/06 00:58:05;;;;;;;6.65;3.20;;;5.50;99.90;;;;;;4810305;29;20042;-84
2022/12/06 01:00:30;;;;;;;9.20;3.40;;;5.50;99.90;;;;;;4824972;29;20038;-84
2022/12/06 01:02:59;;;;;;;8.70;2.90;;;5.50;99.90;;;;;;4803586;29;20039;-84
2022/12/06 01:05:25;;;;;;;8.43;3.00;;;5.50;99.90;;;;;;4810145;29;20042;-84
2022/12/06 01:07:50;;;;;;;15.32;3.35;;;5.50;99.90;;;;;;4805550;29;20038;-86
2022/12/06 01:10:16;;;;;;;11.40;2.92;;;5.50;99.90;;;;;;4805748;29;20042;-85
2022/12/06 01:12:45;;;;;;;10.13;2.70;;;5.50;99.90;;;;;;4805166;29;20069;-85
2022/12/06 01:15:11;;;;;;;9.25;3.30;;;5.50;99.90;;;;;;4794770;29;20038;-85
2022/12/06 01:17:37;;;;;;;8.82;3.10;;;5.50;99.90;;;;;;4825940;29;20051;-84
2022/12/06 01:20:04;;;;;;;10.65;3.25;;;5.50;99.90;;;;;;4810151;29;20046;-84
2022/12/06 01:22:30;;;;;;;9.55;2.90;;;5.50;99.90;;;;;;4808215;29;20104;-86
2022/12/06 01:24:55;;;;;;;8.10;3.08;;;5.50;99.90;;;;;;4807635;29;20046;-84
2022/12/06 01:27:21;;;;;;;11.50;3.67;;;5.50;99.90;;;;;;4787749;29;20035;-85
2022/12/06 01:29:47;;;;;;;8.13;2.80;;;5.60;99.90;;;;;;4808589;29;20789;-84
2022/12/06 01:32:13;;;;;;;11.05;3.72;;;5.50;99.90;;;;;;4805771;29;20100;-85
2022/12/06 01:34:38;;;;;;;8.48;3.75;;;5.50;99.90;;;;;;4809284;29;20090;-84
2022/12/06 01:37:04;;;;;;;11.95;3.15;;;5.60;99.90;;;;;;4808771;29;20045;-86
2022/12/06 01:39:30;;;;;;;11.65;3.35;;;5.60;99.90;;;;;;4824058;29;20080;-84
2022/12/06 01:41:55;;;;;;;9.40;3.20;;;5.50;99.90;;;;;;4795781;29;20046;-85
2022/12/06 01:44:48;;;;;;;9.90;4.00;;;5.60;99.90;;;;;;4821448;29;20045;-84
2022/12/06 01:47:19;;;;;;;6.63;3.08;;;5.50;99.90;;;;;;4792910;29;20046;-84
2022/12/06 01:50:00;;;;;;;8.07;3.10;;;5.50;99.90;;;;;;4824208;29;20046;-85
2022/12/06 01:52:33;;;;;;;7.63;2.85;;;5.50;99.90;;;;;;4808259;29;20394;-85
2022/12/06 01:55:00;;;;;;;9.48;3.70;;;5.50;99.90;;;;;;4791561;29;20250;-84
2022/12/06 01:57:27;;;;;;;5.88;2.90;;;5.50;99.90;;;;;;4812179;29;20061;-85
2022/12/06 01:59:52;;;;;;;8.82;3.80;;;5.50;99.90;;;;;;4805085;29;20038;-86
2022/12/06 02:02:18;;;;;;;8.18;2.47;;;5.30;99.90;;;;;;4806285;29;21471;-85
2022/12/06 02:04:44;;;;;;;8.85;3.20;;;5.50;99.90;;;;;;4790034;29;20038;-85
2022/12/06 02:07:11;;;;;;;4.47;2.78;;;5.50;99.90;;;;;;4801629;29;20040;-85
2022/12/06 02:09:38;;;;;;;5.05;2.97;;;5.50;99.90;;;;;;4803550;29;20074;-84
2022/12/06 02:12:11;;;;;;;10.88;3.53;;;5.50;99.90;;;;;;4809633;29;20050;-85
2022/12/06 02:14:37;;;;;;;7.13;2.97;;;5.50;99.90;;;;;;4788909;29;20099;-85
2022/12/06 02:17:25;;;;;;;3.85;2.50;;;5.50;99.90;;;;;;4785356;29;20081;-84
2022/12/06 02:19:57;;;;;;;8.98;3.35;;;5.40;99.90;;;;;;4790911;29;20113;-85
2022/12/06 02:22:52;;;;;;;5.18;2.92;;;5.40;99.90;;;;;;4806951;29;20498;-84
2022/12/06 02:25:42;;;;;;;7.55;3.15;;;5.40;99.90;;;;;;4814031;29;20053;-85
2022/12/06 02:28:26;;;;;;;4.63;2.60;;;5.40;99.90;;;;;;4794628;29;20120;-85
2022/12/06 02:31:03;;;;;;;8.10;3.65;;;5.40;99.90;;;;;;4834282;29;20178;-84
2022/12/06 02:33:56;;;;;;;6.38;3.00;;;5.40;99.90;;;;;;4793116;29;20129;-85
2022/12/06 02:36:34;;;;;;;8.63;3.10;;;5.40;99.90;;;;;;4793907;29;20045;-84
2022/12/06 02:39:23;;;;;;;8.75;3.08;;;5.40;99.90;;;;;;4810649;29;20042;-86
2022/12/06 02:42:00;;;;;;;8.23;3.00;;;5.40;99.90;;;;;;4792868;29;20038;-85
2022/12/06 02:44:35;;;;;;;8.75;3.10;;;5.30;99.90;;;;;;4808417;29;20252;-84
2022/12/06 02:47:05;;;;;;;9.40;2.83;;;5.30;99.90;;;;;;4822703;29;20077;-85
2022/12/06 02:49:33;;;;;;;7.55;3.00;;;5.40;99.90;;;;;;4812553;29;20057;-84
2022/12/06 02:52:00;;;;;;;10.13;2.95;;;5.30;99.90;;;;;;4805127;29;20039;-85
2022/12/06 02:54:27;;;;;;;5.40;3.15;;;5.40;99.90;;;;;;4809324;29;20041;-85
2022/12/06 02:56:53;;;;;;;12.65;2.92;;;5.40;99.90;;;;;;4822776;29;20521;-86
2022/12/06 02:59:24;;;;;;;10.50;3.65;;;5.40;99.90;;;;;;4811361;29;20045;-85
2022/12/06 03:01:55;;;;;;;7.47;2.58;;;5.40;99.90;;;;;;4808060;29;20042;-85
2022/12/06 03:04:45;;;;;;;6.95;2.88;;;5.30;99.90;;;;;;4806399;29;20046;-84
2022/12/06 03:07:33;;;;;;;8.07;3.40;;;5.30;99.90;;;;;;4806417;29;20043;-85
2022/12/06 03:10:24;;;;;;;6.70;3.58;;;5.30;99.90;;;;;;4807585;29;20042;-85
2022/12/06 03:12:55;;;;;;;6.00;3.10;;;5.30;99.90;;;;;;4809117;29;20052;-85
2022/12/06 03:15:37;;;;;;;8.52;2.75;;;5.30;99.90;;;;;;4808420;29;20070;-85
2022/12/06 03:18:14;;;;;;;6.18;2.75;;;5.30;99.90;;;;;;4811056;29;20057;-85
2022/12/06 03:21:12;;;;;;;6.63;2.33;;;5.30;99.90;;;;;;4826354;29;20042;-85
2022/12/06 03:23:47;;;;;;;6.10;2.63;;;5.30;99.90;;;;;;4790889;29;21111;-85
2022/12/06 03:26:25;;;;;;;7.50;2.67;;;5.20;99.90;;;;;;4794421;29;20498;-85
2022/12/06 03:28:54;;;;;;;5.22;2.80;;;5.20;99.90;;;;;;4816451;29;20038;-85
2022/12/06 03:31:23;;;;;;;5.80;2.30;;;5.20;99.90;;;;;;4797717;29;20089;-85
2022/12/06 03:33:56;;;;;;;6.97;2.30;;;5.20;99.90;;;;;;4812339;29;20100;-85
2022/12/06 03:36:23;;;;;;;3.22;1.83;;;5.30;99.90;;;;;;4807741;29;20053;-84
2022/12/06 03:38:51;;;;;;;7.22;1.90;;;5.70;99.90;;;;;;4806858;29;20520;-85
2022/12/06 03:41:21;;;;;;;5.53;2.33;;;5.20;99.90;;;;;;4810078;29;20521;-86
2022/12/06 03:43:47;;;;;;;6.90;1.60;;;5.20;99.90;;;;;;4812627;29;20282;-85
2022/12/06 03:46:20;;;;;;;4.00;1.63;;;5.20;99.90;;;;;;4813796;29;20477;-85
2022/12/06 03:48:50;;;;;;;7.43;2.00;;;5.20;99.90;;;;;;4793748;29;20100;-86
2022/12/06 03:51:23;;;;;;;6.78;2.10;;;5.20;99.90;;;;;;4809481;29;20050;-84
2022/12/06 03:53:52;;;;;;;6.90;2.40;;;5.20;99.90;;;;;;4817745;29;20129;-86
2022/12/06 03:56:18;;;;;;;4.30;1.10;;;5.20;99.90;;;;;;4807969;29;20042;-85
2022/12/06 03:58:44;;;;;;;4.28;2.00;;;5.20;99.90;;;;;;4810861;29;20074;-84
2022/12/06 04:01:10;;;;;;;5.82;1.45;;;5.10;99.90;;;;;;4810936;29;20097;-84
2022/12/06 04:03:36;;;;;;;6.75;1.27;;;5.10;99.90;;;;;;4825600;29;20045;-84
2022/12/06 04:06:04;;;;;;;4.82;1.40;;;5.10;99.90;;;;;;4810081;29;20042;-84
2022/12/06 04:08:30;;;;;;;4.72;1.90;;;5.10;99.90;;;;;;4808728;29;20038;-85
2022/12/06 04:10:55;;;;;;;3.28;1.67;;;5.00;99.90;;;;;;4811281;29;20040;-85
2022/12/06 04:13:21;;;;;;;6.03;1.45;;;5.00;99.90;;;;;;4810844;29;20479;-84
2022/12/06 04:15:47;;;;;;;3.03;1.58;;;5.00;99.90;;;;;;4807706;29;20054;-84
2022/12/06 04:18:13;;;;;;;4.75;2.08;;;5.00;99.90;;;;;;4823652;29;20042;-84
2022/12/06 04:23:49;;;;;;;4.22;1.50;;;4.90;99.90;;;;;;4830690;29;20048;-85
2022/12/06 04:26:21;;;;;;;5.60;1.70;;;4.80;99.90;;;;;;4808965;29;20762;-84
2022/12/06 04:39:44;;;;;;;4.15;1.17;;;4.70;99.90;;;;;;4816312;29;20049;-84
2022/12/06 04:45:00;;;;;;;2.05;1.30;;;4.60;99.90;;;;;;4820574;29;20058;-85
2022/12/06 04:47:25;;;;;;;2.60;1.00;;;4.50;99.90;;;;;;4809369;29;20034;-85
2022/12/06 04:49:51;;;;;;;4.85;1.10;;;4.50;99.90;;;;;;4807494;29;20042;-86
2022/12/06 04:52:17;;;;;;;4.03;1.42;;;4.40;99.90;;;;;;4800744;29;20494;-86
2022/12/06 04:54:42;;;;;;;5.35;1.40;;;4.40;99.90;;;;;;4806717;29;21065;-85
2022/12/06 04:57:11;;;;;;;3.28;1.40;;;4.40;99.90;;;;;;4807253;29;20518;-85
2022/12/06 04:59:40;;;;;;;2.42;1.25;;;4.30;99.90;;;;;;4807600;29;20050;-87
2022/12/06 05:02:09;;;;;;;5.22;1.83;;;4.70;99.90;;;;;;4809674;29;20057;-87
2022/12/06 05:04:35;;;;;;;3.13;1.30;;;4.30;99.90;;;;;;4791369;29;20089;-86
2022/12/06 05:07:57;;;;;;;5.63;1.05;;;4.30;99.90;;;;;;4806008;29;20077;-87
2022/12/06 05:10:27;;;;;;;4.88;1.80;;;5.30;99.90;;;;;;4741660;30;20056;-87
2022/12/06 05:13:08;;;;;;;4.68;1.13;;;4.70;99.90;;;;;;4752185;29;20115;-88
2022/12/06 05:15:35;;;;;;;5.85;1.80;;;4.30;99.90;;;;;;4835003;29;20122;-85
2022/12/06 05:18:01;;;;;;;3.63;1.60;;;4.20;99.90;;;;;;4806335;29;20117;-85
2022/12/06 05:20:26;;;;;;;4.68;1.35;;;4.20;99.90;;;;;;4791760;29;20417;-84
2022/12/06 05:22:52;;;;;;;4.22;1.65;;;4.20;99.90;;;;;;4818193;29;20038;-86
2022/12/06 05:25:29;;;;;;;4.40;1.92;;;4.20;99.90;;;;;;4808472;29;20081;-86
2022/12/06 05:27:54;;;;;;;5.30;1.92;;;4.20;99.90;;;;;;4814376;29;20065;-84
2022/12/06 05:30:20;;;;;;;7.18;1.60;;;4.20;99.90;;;;;;4807047;29;20866;-85
2022/12/06 05:32:45;;;;;;;3.55;1.70;;;4.20;99.90;;;;;;4788163;29;20045;-85
2022/12/06 05:35:12;;;;;;;9.57;2.10;;;4.20;99.90;;;;;;4802463;29;20046;-87
2022/12/06 05:37:44;;;;;;;4.35;1.70;;;4.10;99.90;;;;;;4800080;29;20042;-87
2022/12/06 05:40:10;;;;;;;5.47;1.95;;;4.10;99.90;;;;;;4821716;29;20045;-86
2022/12/06 05:42:36;;;;;;;4.35;1.60;;;4.10;99.90;;;;;;4787593;29;20052;-83
2022/12/06 05:45:02;;;;;;;6.15;1.77;;;4.10;99.90;;;;;;4807685;29;20050;-84
2022/12/06 05:47:40;;;;;;;4.63;1.60;;;4.00;99.90;;;;;;4816596;29;20046;-83
2022/12/06 05:50:07;;;;;;;4.28;1.77;;;3.90;99.90;;;;;;4791353;29;20430;-84
2022/12/06 05:52:32;;;;;;;5.32;2.03;;;4.00;99.90;;;;;;4823081;29;20039;-84
2022/12/06 05:54:58;;;;;;;4.00;1.88;;;4.00;99.90;;;;;;4810157;29;20104;-85
2022/12/06 05:57:30;;;;;;;4.97;1.80;;;4.00;99.90;;;;;;4810000;29;20046;-83
2022/12/06 06:03:37;;;;;;;5.97;2.17;;;3.90;99.90;;;;;;4825499;29;20037;-84
2022/12/06 06:06:09;;;;;;;3.33;2.10;;;3.90;99.90;;;;;;4810134;29;20042;-84
2022/12/06 06:08:35;;;;;;;4.40;2.47;;;3.90;99.90;;;;;;4810578;29;20111;-84
2022/12/06 06:11:02;;;;;;;9.70;2.30;;;3.90;99.90;;;;;;4810882;29;20046;-84
2022/12/06 06:13:29;;;;;;;4.78;1.98;;;3.90;99.90;;;;;;4817902;29;20061;-84
2022/12/06 06:15:55;;;;;;;8.05;2.55;;;3.90;99.90;;;;;;4809773;29;20088;-82
2022/12/06 06:18:21;;;;;;;8.13;2.10;;;4.00;99.90;;;;;;4814533;29;20049;-84
2022/12/06 06:20:49;;;;;;;6.60;2.67;;;3.90;99.90;;;;;;4800957;29;20042;-83
2022/12/06 06:23:15;;;;;;;4.13;1.88;;;3.90;99.90;;;;;;4810396;29;20045;-83
2022/12/06 06:25:40;;;;;;;7.80;2.08;;;3.90;99.90;;;;;;4810066;29;20046;-85
2022/12/06 06:28:06;;;;;;;3.47;2.20;;;3.80;99.90;;;;;;4821629;29;20042;-83
2022/12/06 06:30:31;;;;;;;5.60;2.25;;;3.80;99.90;;;;;;4811460;29;20034;-83
2022/12/06 06:32:57;;;;;;;4.90;2.13;;;3.80;99.90;;;;;;4796665;29;20051;-83
2022/12/06 06:35:23;;;;;;;6.70;2.13;;;3.80;99.90;;;;;;4814865;29;20050;-86
2022/12/06 06:37:50;;;;;;;4.03;2.10;;;3.60;99.90;;;;;;4816219;29;20049;-85
2022/12/06 06:40:16;;;;;;;2.97;1.65;;;3.60;99.90;;;;;;4814750;29;20402;-84
2022/12/06 06:42:44;;;;;;;4.53;2.53;;;3.80;99.90;;;;;;4824731;29;20042;-85
2022/12/06 06:45:10;;;;;;;2.80;1.90;;;3.50;99.90;;;;;;4823764;29;20102;-81
2022/12/06 06:47:35;;;;;;;4.53;1.83;;;3.50;99.90;;;;;;4813522;29;20174;-82
2022/12/06 06:50:01;;;;;;;2.40;1.90;;;3.50;99.90;;;;;;4815963;29;20042;-84
2022/12/06 06:52:27;;;;;;;3.00;1.55;;;3.50;99.90;;;;;;4812152;29;20045;-82
2022/12/06 06:55:07;;;;;;;6.55;2.15;;;3.70;99.90;;;;;;4829091;29;20121;-85
2022/12/06 06:57:34;;;;;;;4.78;2.50;;;3.40;99.90;;;;;;4784332;29;20054;-83
2022/12/06 07:00:00;;;;;;;7.72;2.47;;;3.40;99.90;;;;;;4804903;29;20456;-85
2022/12/06 07:02:26;;;;;;;7.75;2.63;;;3.30;99.90;;;;;;4805705;29;20046;-85
2022/12/06 07:04:52;;;;;;;5.82;2.85;;;3.30;99.90;;;;;;4781367;29;20145;-86
2022/12/06 07:07:17;;;;;;;5.45;2.45;;;3.30;99.90;;;;;;4808566;29;20058;-83
2022/12/06 07:09:43;;;;;;;5.63;2.53;;;3.30;99.90;;;;;;4808787;29;20053;-82
2022/12/06 07:12:08;;;;;;;5.32;2.42;;;3.30;99.90;;;;;;4792706;29;20034;-85
2022/12/06 07:14:34;;;;;;;5.93;2.63;;;3.40;99.90;;;;;;4811307;29;20069;-84
2022/12/06 07:17:00;;;;;;;8.63;2.38;;;3.20;99.90;;;;;;4808741;29;20073;-86
2022/12/06 07:19:25;;;;;;;8.95;2.13;;;3.10;99.90;;;;;;4809560;29;20069;-83
2022/12/06 07:21:51;;;;;;;6.45;2.60;;;3.10;99.90;;;;;;4793632;29;20050;-84
2022/12/06 07:24:19;;;;;;;6.35;2.47;;;3.00;99.90;;;;;;4803364;29;20134;-85
2022/12/06 07:26:45;;;;;;;4.93;3.15;;;2.90;99.90;;;;;;4821233;29;20115;-85
2022/12/06 07:29:11;;;;;;;5.32;2.53;;;2.90;99.90;;;;;;4810167;29;20043;-86
2022/12/06 07:31:36;;;;;;;8.55;3.28;;;2.90;99.90;;;;;;4788562;29;20035;-85
2022/12/06 07:34:02;;;;;;;5.40;2.90;;;2.90;99.90;;;;;;4803867;29;20075;-86
2022/12/06 07:36:31;;;;;;;3.58;2.42;;;3.00;99.90;;;;;;4805012;29;20489;-85
2022/12/06 07:38:58;;;;;;;4.25;2.67;;;2.90;99.90;;;;;;4817859;29;20284;-85
2022/12/06 07:47:00;;;;;;;3.50;1.90;;;2.80;99.90;;;;;;4817535;29;20133;-85
2022/12/06 07:49:27;;;;;;;6.55;2.80;;;2.80;99.90;;;;;;4821107;29;20442;-86
2022/12/06 07:51:56;;;;;;;6.50;2.00;;;2.70;99.90;;;;;;4807911;29;20163;-86
2022/12/06 07:54:22;;;;;;;4.60;2.92;;;2.80;99.90;;;;;;4789569;29;20080;-86
2022/12/06 07:56:48;;;;;;;7.70;3.00;;;2.70;99.90;;;;;;4809864;29;20042;-87
2022/12/06 07:59:14;;;;;;;6.05;3.15;;;2.80;99.90;;;;;;4808093;29;20034;-86
2022/12/06 08:02:03;;;;;;;7.13;3.22;;;2.90;99.90;;;;;;4807609;29;20434;-85
2022/12/06 08:04:29;;;;;;;6.28;3.38;;;2.90;99.90;;;;;;4806399;29;20092;-85
2022/12/06 08:06:59;;;;;;;5.68;3.05;;;2.90;99.90;;;;;;4808971;29;20533;-85
2022/12/06 08:09:28;;;;;;;5.88;2.95;;;2.90;99.90;;;;;;4795786;29;20035;-85
2022/12/06 08:12:13;;;;;;;3.90;2.25;;;3.10;99.90;;;;;;4809014;29;20042;-85
2022/12/06 08:14:43;;;;;;;7.50;2.72;;;2.90;99.90;;;;;;4843383;29;20038;-86
2022/12/06 08:17:18;;;;;;;5.45;2.20;;;2.80;99.90;;;;;;4823356;29;20059;-85
2022/12/06 08:19:45;;;;;;;5.00;2.50;;;1.90;99.90;;;;;;4793471;29;20043;-85
2022/12/06 08:22:11;;;;;;;5.20;2.58;;;3.00;99.90;;;;;;4808258;29;20125;-85
2022/12/06 08:24:37;;;;;;;4.95;2.30;;;2.80;99.90;;;;;;4808835;29;20592;-85
2022/12/06 08:27:04;;;;;;;5.50;2.90;;;2.90;99.90;;;;;;4808686;29;20058;-86
2022/12/06 08:29:34;;;;;;;5.57;2.67;;;2.90;99.90;;;;;;4806754;29;20129;-87
2022/12/06 08:32:00;;;;;;;2.80;2.40;;;3.50;99.90;;;;;;4815095;29;20439;-85
2022/12/06 08:34:25;;;;;;;16.38;3.30;;;3.10;99.90;;;;;;4807577;29;20029;-86
2022/12/06 08:36:51;;;;;;;6.75;3.00;;;3.30;99.90;;;;;;4794253;29;20042;-85
2022/12/06 08:39:17;;;;;;;6.45;2.85;;;3.30;99.90;;;;;;4809811;29;20045;-82
2022/12/06 08:41:54;;;;;;;4.53;2.85;;;3.70;99.90;;;;;;4810183;29;20038;-83
2022/12/06 08:44:20;;;;;;;6.57;3.10;;;4.10;99.90;;;;;;4808618;29;20129;-83
2022/12/06 08:46:46;;;;;;;5.00;2.97;;;3.80;99.90;;;;;;4811344;29;20559;-82
2022/12/06 08:49:13;;;;;;;8.10;3.28;;;3.80;99.90;;;;;;4826917;29;20045;-83
2022/12/06 08:51:39;;;;;;;7.20;3.90;;;3.90;99.90;;;;;;4809959;29;20409;-85
2022/12/06 08:54:07;;;;;;;6.28;3.70;;;3.90;99.90;;;;;;4813497;29;20046;-82
2022/12/06 08:56:34;;;;;;;4.30;2.85;;;4.00;99.90;;;;;;4797311;29;20041;-83
2022/12/06 08:59:00;;;;;;;4.80;3.10;;;4.40;99.90;;;;;;4808075;29;20054;-83
2022/12/06 09:01:28;;;;;;;4.57;2.78;;;4.20;99.90;;;;;;4806068;29;20046;-83
2022/12/06 09:03:54;;;;;;;6.43;3.15;;;4.20;99.90;;;;;;4806288;29;20050;-83
2022/12/06 09:06:21;;;;;;;3.80;2.97;;;4.30;99.90;;;;;;4806965;29;20049;-82
2022/12/06 09:08:47;;;;;;;6.15;2.85;;;4.30;99.90;;;;;;4821290;29;20095;-83
2022/12/06 09:11:13;;;;;;;4.05;2.75;;;4.40;99.90;;;;;;4806545;29;20087;-82
2022/12/06 09:13:39;;;;;;;5.80;3.40;;;4.40;99.90;;;;;;4809389;29;20454;-83
2022/12/06 09:16:07;;;;;;;6.45;2.42;;;4.40;99.90;;;;;;4806917;29;20154;-83
2022/12/06 09:18:33;;;;;;;4.07;2.38;;;4.50;99.90;;;;;;4807740;29;20046;-83
2022/12/06 09:20:58;;;;;;;3.17;2.22;;;4.60;99.90;;;;;;4807959;29;20061;-86
2022/12/06 09:23:24;;;;;;;3.55;2.30;;;4.60;99.90;;;;;;4807235;29;20038;-83
2022/12/06 09:25:50;;;;;;;4.07;2.08;;;4.60;99.90;;;;;;4806769;29;20056;-82
2022/12/06 09:28:16;;;;;;;7.00;2.20;;;4.70;99.90;;;;;;4803912;29;20042;-86
2022/12/06 09:30:41;;;;;;;7.70;2.15;;;4.80;99.90;;;;;;4806397;29;20035;-86
2022/12/06 09:33:07;;;;;;;4.13;1.95;;;4.80;99.90;;;;;;4792304;29;20050;-82
2022/12/06 09:35:34;;;;;;;4.55;2.20;;;4.90;99.90;;;;;;4806377;29;20074;-82
2022/12/06 09:38:02;;;;;;;9.07;1.85;;;4.90;99.90;;;;;;4808586;29;20046;-83
2022/12/06 09:41:10;;;;;;;3.13;1.80;;;4.90;99.90;;;;;;4804408;29;20076;-83
2022/12/06 09:44:07;;;;;;;2.10;1.65;;;5.00;99.90;;;;;;4820728;29;20085;-82
2022/12/06 09:46:56;;;;;;;2.45;1.58;;;4.90;99.90;;;;;;4791367;29;20747;-82
2022/12/06 09:49:25;;;;;;;4.75;1.50;;;5.00;99.90;;;;;;4794243;29;20100;-82
2022/12/06 09:52:15;;;;;;;6.07;1.80;;;5.00;99.90;;;;;;4812892;29;21910;-83
2022/12/06 09:55:19;;;;;;;4.00;1.60;;;5.00;99.90;;;;;;4802187;29;20038;-82
2022/12/06 10:05:15;;;;;;;5.18;1.40;;;5.10;99.90;;;;;;4815709;29;20054;-84
2022/12/06 10:12:17;;;;;;;4.97;1.88;;;5.30;99.90;;;;;;4828466;29;20080;-82
2022/12/06 10:16:03;;;;;;;5.60;2.13;;;5.20;99.90;;;;;;4829782;29;20418;-83
2022/12/06 10:19:58;;;;;;;3.25;1.20;;;5.30;99.90;;;;;;4774831;29;20142;-83
2022/12/06 10:23:55;;;;;;;4.50;1.88;;;5.30;99.90;;;;;;4743648;30;20044;-83
2022/12/06 10:27:46;;;;;;;5.22;1.45;;;5.30;99.90;;;;;;4687648;30;20465;-83
2022/12/06 10:31:05;;;;;;;4.60;2.00;;;5.30;99.90;;;;;;4684593;30;20111;-85
2022/12/06 10:34:33;;;;;;;3.78;1.30;;;5.20;99.90;;;;;;4695347;30;20053;-83
2022/12/06 10:44:21;;;;;;;8.43;1.20;;;5.60;99.90;;;;;;4700029;30;20048;-82
2022/12/06 10:47:03;;;;;;;4.63;1.83;;;5.70;99.90;;;;;;4720506;30;20517;-83
2022/12/06 10:49:47;;;;;;;4.20;0.90;;;5.80;99.90;;;;;;4699140;29;20049;-82
2022/12/06 10:52:22;;;;;;;4.15;1.75;;;6.00;99.90;;;;;;4796834;29;20043;-83
2022/12/06 10:55:09;;;;;;;5.03;0.98;;;6.10;99.90;;;;;;4803200;29;20042;-83
2022/12/06 10:58:02;;;;;;;6.45;1.88;;;6.20;99.90;;;;;;4805686;29;20110;-83
2022/12/06 11:00:33;;;;;;;3.67;1.42;;;6.20;99.90;;;;;;4804129;29;20078;-83
2022/12/06 11:03:10;;;;;;;2.42;1.00;;;6.30;99.90;;;;;;4824854;29;20042;-82
2022/12/06 11:06:36;;;;;;;7.72;1.33;;;6.30;99.90;;;;;;4821030;29;20050;-83
2022/12/06 11:09:57;;;;;;;6.00;1.35;;;6.30;99.90;;;;;;4793226;29;20054;-82
2022/12/06 11:13:53;;;;;;;4.85;1.40;;;6.40;99.90;;;;;;4812904;29;20091;-84
2022/12/06 11:18:05;;;;;;;4.68;1.40;;;6.40;99.90;;;;;;4755870;30;20047;-83
2022/12/06 11:21:39;;;;;;;5.88;1.08;;;6.50;99.90;;;;;;4737737;30;20139;-83
2022/12/06 11:25:05;;;;;;;4.97;1.42;;;7.00;99.90;;;;;;4725248;30;20064;-82
2022/12/06 11:27:54;;;;;;;4.00;1.13;;;6.50;99.90;;;;;;4660999;30;20054;-84
2022/12/06 11:30:20;;;;;;;3.85;1.10;;;6.60;99.90;;;;;;4683975;30;20275;-82
2022/12/06 11:32:49;;;;;;;4.45;1.70;;;6.60;99.90;;;;;;4786870;29;20147;-81
2022/12/06 11:35:19;;;;;;;2.05;1.05;;;6.60;99.90;;;;;;4797381;29;20053;-82
2022/12/06 11:37:46;;;;;;;4.53;1.80;;;6.70;99.90;;;;;;4830718;29;20608;-82
2022/12/06 11:40:20;;;;;;;7.10;1.35;;;6.70;99.90;;;;;;4798618;29;20061;-82
2022/12/06 11:42:46;;;;;;;1.48;1.00;;;6.70;99.90;;;;;;4812942;29;20073;-83
2022/12/06 11:45:26;;;;;;;3.97;1.15;;;6.70;99.90;;;;;;4811923;29;20042;-86
2022/12/06 11:47:58;;;;;;;4.25;0.88;;;6.70;99.90;;;;;;4807390;29;20041;-85
2022/12/06 11:50:28;;;;;;;4.53;1.00;;;7.00;99.90;;;;;;4809508;29;20121;-85
2022/12/06 11:53:06;;;;;;;3.55;0.98;;;6.80;99.90;;;;;;4794121;29;20073;-86
2022/12/06 11:55:36;;;;;;;2.10;0.82;;;6.90;99.90;;;;;;4810951;29;20090;-86
2022/12/06 11:58:08;;;;;;;3.60;0.90;;;7.80;99.90;;;;;;4797952;29;20114;-83
2022/12/06 12:00:34;;;;;;;2.03;0.85;;;7.40;99.90;;;;;;4817345;29;20046;-82
2022/12/06 12:02:59;;;;;;;3.92;0.90;;;7.00;99.90;;;;;;4814858;29;20049;-82
2022/12/06 12:05:29;;;;;;;4.25;1.38;;;7.00;99.90;;;;;;4814221;29;20046;-82
2022/12/06 12:07:58;;;;;;;2.78;1.00;;;7.00;99.90;;;;;;4800912;29;20038;-82
2022/12/06 12:10:39;;;;;;;5.18;1.20;;;7.00;99.90;;;;;;4812509;29;20053;-83
2022/12/06 12:13:44;;;;;;;1.98;0.75;;;7.10;99.90;;;;;;4811264;29;20065;-82
2022/12/06 12:16:17;;;;;;;5.65;0.98;;;7.10;99.90;;;;;;4826603;29;20045;-83
2022/12/06 12:19:00;;;;;;;2.33;1.00;;;7.00;99.90;;;;;;4816371;29;20385;-83
2022/12/06 12:21:40;;;;;;;1.63;0.52;;;7.00;99.90;;;;;;4812468;29;20557;-85
2022/12/06 12:24:41;;;;;;;4.97;1.00;;;7.10;99.90;;;;;;4814965;29;20559;-82
2022/12/06 12:27:33;;;;;;;5.68;1.17;;;7.80;99.90;;;;;;4820419;29;20100;-83
2022/12/06 12:30:14;;;;;;;1.70;0.68;;;7.10;99.90;;;;;;4825154;29;20035;-82
2022/12/06 12:32:40;;;;;;;3.85;1.13;;;7.10;99.90;;;;;;4809927;29;20394;-83
2022/12/06 12:35:27;;;;;;;1.75;0.70;;;7.10;99.90;;;;;;4814496;29;20516;-82
2022/12/06 12:38:01;;;;;;;2.33;0.70;;;7.10;99.90;;;;;;4797313;29;20540;-82
2022/12/06 12:40:32;;;;;;;4.05;0.70;;;7.10;99.90;;;;;;4797247;29;20084;-82
2022/12/06 12:43:25;;;;;;;3.53;1.00;;;7.10;99.90;;;;;;4798177;29;20045;-83
2022/12/06 12:46:09;;;;;;;3.38;0.68;;;7.10;99.90;;;;;;4827681;29;20046;-82
2022/12/06 12:48:41;;;;;;;2.38;0.57;;;7.10;99.90;;;;;;4797228;29;20109;-82
2022/12/06 12:51:36;;;;;;;3.53;1.10;;;7.10;99.90;;;;;;4811973;29;20045;-82
2022/12/06 12:54:17;;;;;;;1.98;0.85;;;7.10;99.90;;;;;;4802465;29;20437;-83
2022/12/06 12:56:44;;;;;;;6.88;0.88;;;7.10;99.90;;;;;;4808765;29;20050;-84
2022/12/06 12:59:16;;;;;;;6.35;1.30;;;7.30;99.90;;;;;;4813864;29;20120;-82
2022/12/06 13:02:00;;;;;;;2.20;0.85;;;7.10;99.90;;;;;;4833448;29;20501;-82
2022/12/06 13:04:41;;;;;;;5.47;1.15;;;7.20;99.90;;;;;;4814576;29;20177;-82
2022/12/06 13:07:20;;;;;;;9.52;1.33;;;7.20;99.90;;;;;;4828793;29;20050;-82
2022/12/06 13:10:03;;;;;;;7.40;1.13;;;7.20;99.90;;;;;;4798531;29;20049;-82
2022/12/06 13:13:21;;;;;;;4.22;1.27;;;7.20;99.90;;;;;;4826821;29;20046;-83
2022/12/06 13:17:28;;;;;;;1.65;0.90;;;7.20;99.90;;;;;;4705645;30;20048;-82
2022/12/06 13:20:55;;;;;;;3.22;0.90;;;7.30;99.90;;;;;;4664603;30;20135;-83
2022/12/06 13:24:48;;;;;;;2.08;0.80;;;7.10;99.90;;;;;;4664028;30;20049;-82
2022/12/06 13:39:45;;;;;;;4.50;0.85;;;7.00;99.90;;;;;;4612362;31;20056;-82
2022/12/06 14:02:14;;;;;;;2.95;0.70;;;6.90;99.90;;;;;;4581725;31;20213;-85
2022/12/06 14:13:14;;;;;;;5.90;1.27;;;6.80;99.90;;;;;;4625270;30;20042;-83
2022/12/06 14:15:48;;;;;;;4.50;1.27;;;6.80;99.90;;;;;;4677912;29;20061;-83
2022/12/06 14:18:25;;;;;;;8.05;1.60;;;6.80;99.90;;;;;;4808634;29;20498;-83
2022/12/06 14:20:53;;;;;;;2.75;0.75;;;6.80;99.90;;;;;;4791031;29;20533;-83
2022/12/06 15:04:46;;;;;;;4.53;0.30;;;6.60;99.90;;;;;;4694658;30;20413;-83
2022/12/06 15:07:32;;;;;;;2.05;0.40;;;6.80;99.90;;;;;;4799188;29;20050;-83
2022/12/06 15:10:33;;;;;;;7.47;0.30;;;6.60;99.90;;;;;;4810764;29;20043;-83
2022/12/06 15:13:25;;;;;;;3.78;0.40;;;6.50;99.90;;;;;;4807526;29;20176;-84
2022/12/06 15:16:07;;;;;;;3.25;0.30;;;6.50;99.90;;;;;;4805280;29;20069;-83
2022/12/06 15:18:55;;;;;;;3.03;0.38;;;6.50;99.90;;;;;;4809767;29;20048;-83
2022/12/06 15:21:21;;;;;;;3.13;0.55;;;6.50;99.90;;;;;;4823680;29;20072;-83
2022/12/06 15:23:51;;;;;;;3.72;0.50;;;6.50;99.90;;;;;;4811288;29;20620;-84
2022/12/06 15:26:18;;;;;;;4.13;0.60;;;6.50;99.90;;;;;;4809967;29;20042;-83
2022/12/06 15:28:44;;;;;;;4.80;0.50;;;6.50;99.90;;;;;;4809360;29;20133;-83
2022/12/06 15:31:16;;;;;;;1.88;0.63;;;6.50;99.90;;;;;;4811180;29;20074;-83
2022/12/06 15:33:41;;;;;;;1.60;0.35;;;6.50;99.90;;;;;;4811913;29;20043;-83
2022/12/06 15:36:12;;;;;;;1.85;0.50;;;6.50;99.90;;;;;;4812547;29;20049;-83
2022/12/06 15:38:38;;;;;;;2.65;0.70;;;6.50;99.90;;;;;;4811525;29;20050;-84
2022/12/06 15:41:04;;;;;;;0.60;0.40;;;6.40;99.90;;;;;;4797149;29;20048;-83
2022/12/06 15:43:34;;;;;;;4.72;0.70;;;6.40;99.90;;;;;;4811765;29;20053;-82